createdAt,value
2019-04-16T00:00:35.848Z,23.90
2019-04-16T00:03:12.133Z,23.90
2019-04-16T00:05:47.246Z,23.90
2019-04-16T00:08:30.383Z,23.90
2019-04-16T00:11:17.666Z,23.80
2019-04-16T00:13:52.119Z,23.90
2019-04-16T00:16:25.339Z,23.90
2019-04-16T00:19:04.380Z,24.00
2019-04-16T00:21:45.491Z,24.00
2019-04-16T00:24:19.641Z,24.00
2019-04-16T00:26:52.358Z,24.00
2019-04-16T00:29:24.010Z,23.90
2019-04-16T00:31:59.458Z,23.90
2019-04-16T00:34:31.816Z,23.90
2019-04-16T00:37:04.430Z,23.90
2019-04-16T00:39:37.874Z,24.00
2019-04-16T00:42:10.342Z,24.00
2019-04-16T00:44:43.412Z,24.00
2019-04-16T00:47:14.899Z,24.00
2019-04-16T00:49:47.978Z,24.10
2019-04-16T00:52:20.617Z,24.10
2019-04-16T00:54:53.376Z,24.10
2019-04-16T00:57:25.998Z,24.20
2019-04-16T01:00:03.312Z,24.20
2019-04-16T01:02:36.428Z,24.20
2019-04-16T01:05:07.817Z,24.20
2019-04-16T01:07:40.638Z,24.20
2019-04-16T01:10:26.835Z,24.20
2019-04-16T01:12:59.659Z,24.20
2019-04-16T01:15:35.183Z,24.20
2019-04-16T01:18:08.008Z,24.20
2019-04-16T01:20:44.608Z,24.20
2019-04-16T01:23:17.785Z,24.20
2019-04-16T01:25:55.361Z,24.20
2019-04-16T01:28:33.390Z,24.20
2019-04-16T01:31:12.700Z,24.20
2019-04-16T01:33:48.752Z,24.20
2019-04-16T01:36:22.949Z,24.20
2019-04-16T01:39:14.813Z,24.20
2019-04-16T01:41:34.998Z,24.20
2019-04-16T01:44:08.445Z,24.20
2019-04-16T01:46:42.217Z,24.20
2019-04-16T01:49:15.162Z,24.20
2019-04-16T01:51:48.564Z,24.20
2019-04-16T01:57:15.016Z,24.10
2019-04-16T01:59:46.358Z,24.10
2019-04-16T02:02:19.559Z,24.20
2019-04-16T02:04:53.448Z,24.10
2019-04-16T02:07:27.932Z,24.10
2019-04-16T02:10:00.763Z,24.10
2019-04-16T02:12:32.807Z,24.10
2019-04-16T02:15:08.515Z,24.10
2019-04-16T02:17:41.064Z,24.10
2019-04-16T02:20:16.126Z,24.10
2019-04-16T02:22:50.123Z,24.00
2019-04-16T02:25:23.005Z,24.00
2019-04-16T02:27:58.954Z,24.00
2019-04-16T02:30:39.443Z,24.00
2019-04-16T02:33:11.141Z,23.90
2019-04-16T02:35:43.746Z,23.90
2019-04-16T02:38:16.582Z,23.90
2019-04-16T02:40:53.771Z,23.90
2019-04-16T02:43:26.529Z,23.90
2019-04-16T02:45:59.061Z,23.80
2019-04-16T02:48:31.896Z,23.80
2019-04-16T02:51:12.019Z,23.80
2019-04-16T02:53:58.674Z,23.70
2019-04-16T02:56:51.471Z,23.70
2019-04-16T02:59:36.024Z,23.70
2019-04-16T03:02:12.557Z,23.60
2019-04-16T03:04:50.023Z,23.60
2019-04-16T03:07:22.986Z,23.50
2019-04-16T03:10:01.190Z,23.50
2019-04-16T03:12:28.363Z,23.50
2019-04-16T03:15:02.479Z,23.50
2019-04-16T03:17:42.717Z,23.50
2019-04-16T03:20:20.888Z,23.50
2019-04-16T03:22:54.866Z,23.50
2019-04-16T03:25:27.957Z,23.60
2019-04-16T03:28:00.431Z,23.60
2019-04-16T03:30:40.390Z,23.60
2019-04-16T03:33:12.381Z,23.50
2019-04-16T03:35:57.621Z,23.50
2019-04-16T03:38:29.839Z,23.40
2019-04-16T03:41:05.270Z,23.50
2019-04-16T03:43:37.712Z,23.40
2019-04-16T03:46:12.794Z,23.40
2019-04-16T03:48:44.145Z,23.40
2019-04-16T03:51:17.082Z,23.40
2019-04-16T03:53:50.361Z,23.40
2019-04-16T03:56:23.484Z,23.50
2019-04-16T03:58:56.769Z,23.60
2019-04-16T04:01:30.055Z,23.70
2019-04-16T04:04:02.490Z,23.80
2019-04-16T04:06:36.559Z,23.90
2019-04-16T04:09:09.570Z,24.00
2019-04-16T04:11:42.893Z,24.10
2019-04-16T04:14:22.379Z,24.10
2019-04-16T04:16:50.989Z,24.20
2019-04-16T04:19:26.715Z,24.20
2019-04-16T04:22:03.680Z,24.20
2019-04-16T04:24:36.756Z,24.10
2019-04-16T04:27:13.065Z,24.10
2019-04-16T04:29:46.318Z,24.00
2019-04-16T04:32:18.614Z,23.90
2019-04-16T04:34:52.726Z,23.90
2019-04-16T04:37:30.983Z,23.90
2019-04-16T04:40:06.578Z,23.90
2019-04-16T04:42:51.732Z,23.80
2019-04-16T04:45:27.451Z,23.80
2019-04-16T04:48:00.378Z,23.80
2019-04-16T04:50:35.419Z,23.90
2019-04-16T04:53:07.320Z,24.00
2019-04-16T04:55:39.902Z,24.10
2019-04-16T04:58:12.337Z,24.10
2019-04-16T05:00:45.122Z,24.10
2019-04-16T05:03:33.882Z,24.20
2019-04-16T05:06:20.010Z,24.10
2019-04-16T05:08:52.446Z,24.10
2019-04-16T05:11:25.207Z,24.10
2019-04-16T05:13:58.618Z,24.00
2019-04-16T05:16:31.516Z,24.00
2019-04-16T05:19:04.951Z,24.00
2019-04-16T05:21:38.390Z,24.10
2019-04-16T05:24:09.878Z,24.20
2019-04-16T05:26:42.964Z,24.30
2019-04-16T05:29:17.514Z,24.50
2019-04-16T05:31:50.177Z,24.50
2019-04-16T05:34:23.762Z,24.60
2019-04-16T05:36:58.737Z,24.60
2019-04-16T05:39:31.836Z,24.60
2019-04-16T05:42:04.529Z,24.70
2019-04-16T05:44:37.755Z,24.70
2019-04-16T05:47:16.767Z,24.70
2019-04-16T05:49:49.100Z,24.80
2019-04-16T05:52:22.541Z,24.90
2019-04-16T05:55:17.945Z,24.90
2019-04-16T05:57:50.443Z,24.90
2019-04-16T06:00:24.176Z,25.00
2019-04-16T06:02:57.000Z,25.10
2019-04-16T06:05:28.330Z,25.10
2019-04-16T06:08:12.089Z,25.10
2019-04-16T06:10:49.962Z,25.20
2019-04-16T06:13:29.610Z,25.20
2019-04-16T06:16:09.453Z,25.30
2019-04-16T06:19:04.043Z,25.40
2019-04-16T06:21:56.698Z,25.40
2019-04-16T06:24:46.623Z,25.50
2019-04-16T06:27:35.948Z,25.60
2019-04-16T06:30:26.516Z,25.70
2019-04-16T06:33:00.763Z,25.70
2019-04-16T06:35:47.787Z,25.80
2019-04-16T06:38:24.855Z,25.90
2019-04-16T06:41:07.906Z,25.80
2019-04-16T06:43:58.353Z,25.90
2019-04-16T06:46:57.097Z,25.90
2019-04-16T06:49:55.998Z,25.90
2019-04-16T06:52:38.676Z,25.80
2019-04-16T06:55:15.681Z,25.80
2019-04-16T06:58:05.759Z,25.70
2019-04-16T07:00:45.519Z,25.70
2019-04-16T07:03:34.410Z,25.70
2019-04-16T07:06:24.760Z,25.60
2019-04-16T07:09:11.008Z,25.60
2019-04-16T07:11:54.329Z,25.60
2019-04-16T07:14:20.140Z,25.60
2019-04-16T07:16:52.403Z,25.60
2019-04-16T07:19:26.369Z,25.70
2019-04-16T07:21:59.672Z,25.70
2019-04-16T07:24:37.395Z,25.70
2019-04-16T07:27:11.713Z,25.70
2019-04-16T07:29:51.527Z,25.60
2019-04-16T07:32:43.647Z,25.60
2019-04-16T07:35:17.331Z,25.50
2019-04-16T07:38:04.977Z,25.40
2019-04-16T07:40:52.075Z,25.40
2019-04-16T07:43:42.015Z,25.40
2019-04-16T07:46:34.574Z,25.30
2019-04-16T07:49:15.521Z,25.40
2019-04-16T07:51:49.980Z,25.30
2019-04-16T07:54:39.917Z,25.40
2019-04-16T07:57:13.275Z,25.30
2019-04-16T07:59:47.675Z,25.40
2019-04-16T08:02:22.309Z,25.40
2019-04-16T08:04:54.597Z,25.40
2019-04-16T08:07:27.096Z,25.40
2019-04-16T08:10:03.359Z,25.40
2019-04-16T08:12:42.087Z,25.40
2019-04-16T08:15:15.379Z,25.40
2019-04-16T08:17:47.941Z,25.40
2019-04-16T08:20:21.229Z,25.40
2019-04-16T08:22:55.988Z,25.40
2019-04-16T08:25:33.547Z,25.40
2019-04-16T08:28:06.903Z,25.40
2019-04-16T08:30:39.502Z,25.40
2019-04-16T08:33:12.292Z,25.40
2019-04-16T08:35:45.484Z,25.40
2019-04-16T08:38:19.112Z,25.40
2019-04-16T08:40:54.308Z,25.40
2019-04-16T08:43:31.708Z,25.40
2019-04-16T08:46:04.238Z,25.40
2019-04-16T08:48:36.799Z,25.40
2019-04-16T08:51:09.294Z,25.30
2019-04-16T08:53:43.805Z,25.20
2019-04-16T08:56:16.521Z,25.10
2019-04-16T08:58:49.314Z,25.10
2019-04-16T09:01:23.722Z,25.00
2019-04-16T09:04:01.535Z,24.90
2019-04-16T09:06:31.079Z,24.90
2019-04-16T09:09:12.422Z,24.80
2019-04-16T09:11:41.867Z,24.80
2019-04-16T09:14:16.831Z,24.70
2019-04-16T09:16:53.860Z,24.70
2019-04-16T09:19:28.484Z,24.60
2019-04-16T09:22:02.130Z,24.60
2019-04-16T09:24:51.475Z,24.50
2019-04-16T09:27:31.038Z,24.60
2019-04-16T09:30:16.372Z,24.50
2019-04-16T09:32:45.169Z,24.50
2019-04-16T09:35:25.657Z,24.50
2019-04-16T09:37:59.435Z,24.50
2019-04-16T09:40:49.545Z,24.50
2019-04-16T09:43:30.361Z,24.50
2019-04-16T09:46:10.088Z,24.40
2019-04-16T09:48:38.573Z,24.30
2019-04-16T09:51:11.378Z,24.30
2019-04-16T09:53:45.121Z,24.40
2019-04-16T09:56:30.551Z,24.30
2019-04-16T09:59:15.816Z,24.30
2019-04-16T10:01:47.651Z,24.30
2019-04-16T10:04:22.769Z,24.30
2019-04-16T10:06:55.987Z,24.20
2019-04-16T10:09:29.468Z,24.30
2019-04-16T10:12:01.308Z,24.20
2019-04-16T10:14:33.786Z,24.20
2019-04-16T10:17:08.638Z,24.20
2019-04-16T10:19:43.250Z,24.20
2019-04-16T10:22:17.320Z,24.20
2019-04-16T10:25:09.322Z,24.20
2019-04-16T10:27:43.337Z,24.20
2019-04-16T10:30:24.223Z,24.10
2019-04-16T10:32:56.952Z,24.10
2019-04-16T10:35:29.208Z,24.10
2019-04-16T10:38:03.045Z,24.10
2019-04-16T10:40:38.231Z,24.10
2019-04-16T10:43:18.356Z,24.10
2019-04-16T10:45:59.269Z,24.10
2019-04-16T10:48:39.227Z,24.00
2019-04-16T10:51:15.532Z,24.00
2019-04-16T10:53:51.826Z,23.90
2019-04-16T10:56:26.074Z,23.90
2019-04-16T10:59:05.292Z,23.90
2019-04-16T11:01:41.369Z,23.90
2019-04-16T11:04:27.604Z,23.90
2019-04-16T11:07:03.950Z,23.90
2019-04-16T11:09:39.248Z,23.80
2019-04-16T11:12:14.360Z,23.80
2019-04-16T11:14:47.827Z,23.90
2019-04-16T11:17:25.985Z,23.80
2019-04-16T11:20:04.454Z,23.80
2019-04-16T11:22:43.893Z,23.80
2019-04-16T11:25:21.303Z,23.80
2019-04-16T11:27:54.579Z,23.80
2019-04-16T11:30:34.143Z,23.80
2019-04-16T11:33:06.515Z,23.80
2019-04-16T11:35:39.298Z,23.80
2019-04-16T11:38:12.437Z,23.70
2019-04-16T11:40:47.629Z,23.70
2019-04-16T11:43:20.499Z,23.70
2019-04-16T11:45:54.356Z,23.80
2019-04-16T11:48:28.310Z,23.80
2019-04-16T11:51:01.228Z,23.70
2019-04-16T11:53:36.840Z,23.70
2019-04-16T11:56:10.439Z,23.70
2019-04-16T11:58:44.440Z,23.70
2019-04-16T12:01:18.643Z,23.70
2019-04-16T12:03:56.700Z,23.70
2019-04-16T12:06:50.811Z,23.70
2019-04-16T12:09:43.267Z,23.70
2019-04-16T12:12:20.157Z,23.70
2019-04-16T12:15:03.610Z,23.70
2019-04-16T12:17:50.806Z,23.70
2019-04-16T12:20:47.295Z,23.70
2019-04-16T12:23:30.970Z,23.70
2019-04-16T12:26:15.673Z,23.70
2019-04-16T12:28:56.746Z,23.70
2019-04-16T12:31:44.053Z,23.70
2019-04-16T12:34:18.709Z,23.70
2019-04-16T12:37:10.954Z,23.70
2019-04-16T12:39:48.200Z,23.70
2019-04-16T12:42:22.324Z,23.70
2019-04-16T12:44:56.128Z,23.70
2019-04-16T12:47:36.354Z,23.70
2019-04-16T12:50:10.719Z,23.70
2019-04-16T12:53:01.503Z,23.60
2019-04-16T12:55:39.434Z,23.60
2019-04-16T12:58:25.890Z,23.60
2019-04-16T13:01:02.676Z,23.60
2019-04-16T13:03:37.958Z,23.60
2019-04-16T13:06:30.765Z,23.60
2019-04-16T13:09:25.480Z,23.60
2019-04-16T13:12:14.694Z,23.60
2019-04-16T13:15:00.910Z,23.50
2019-04-16T13:17:34.447Z,23.60
2019-04-16T13:20:09.598Z,23.60
2019-04-16T13:23:01.001Z,23.60
2019-04-16T13:25:35.302Z,23.60
2019-04-16T13:28:08.959Z,23.50
2019-04-16T13:30:41.800Z,23.50
2019-04-16T13:33:14.427Z,23.50
2019-04-16T13:35:46.822Z,23.50
2019-04-16T13:38:20.570Z,23.50
2019-04-16T13:40:54.176Z,23.50
2019-04-16T13:43:28.297Z,23.50
2019-04-16T13:46:00.957Z,23.50
2019-04-16T13:48:37.674Z,23.50
2019-04-16T13:51:14.908Z,23.50
2019-04-16T13:54:03.493Z,23.50
2019-04-16T13:56:43.553Z,23.50
2019-04-16T13:59:17.547Z,23.50
2019-04-16T14:02:07.499Z,23.50
2019-04-16T14:04:40.294Z,23.60
2019-04-16T14:07:12.520Z,23.50
2019-04-16T14:09:46.068Z,23.50
2019-04-16T14:12:24.503Z,23.60
2019-04-16T14:14:52.604Z,23.60
2019-04-16T14:17:26.450Z,23.60
2019-04-16T14:19:59.257Z,23.60
2019-04-16T14:22:31.870Z,23.60
2019-04-16T14:25:06.382Z,23.60
2019-04-16T14:27:40.055Z,23.60
2019-04-16T14:30:17.883Z,23.60
2019-04-16T14:32:50.754Z,23.70
2019-04-16T14:35:33.505Z,23.70
2019-04-16T14:38:04.202Z,23.70
2019-04-16T14:40:39.638Z,23.70
2019-04-16T14:43:12.773Z,23.70
2019-04-16T14:45:59.245Z,23.70
2019-04-16T14:48:29.301Z,23.70
2019-04-16T14:51:03.398Z,23.70
2019-04-16T14:53:40.851Z,23.70
2019-04-16T14:56:15.791Z,23.70
2019-04-16T14:58:55.425Z,23.70
2019-04-16T15:01:48.213Z,23.80
2019-04-16T15:04:40.206Z,23.80
2019-04-16T15:07:22.782Z,23.80
2019-04-16T15:11:20.120Z,23.70
2019-04-16T15:13:25.933Z,23.70
2019-04-16T15:19:37.985Z,23.80
2019-04-16T15:22:20.906Z,23.80
2019-04-16T15:24:53.749Z,23.80
2019-04-16T15:27:44.762Z,23.80
2019-04-16T15:30:36.225Z,23.80
2019-04-16T15:33:26.874Z,23.80
2019-04-16T15:36:17.709Z,23.80
2019-04-16T15:39:02.902Z,23.70
2019-04-16T15:41:38.313Z,23.70
2019-04-16T15:45:18.909Z,23.60
2019-04-16T15:47:52.424Z,23.60
2019-04-16T15:54:52.407Z,23.50
2019-04-16T15:56:53.759Z,23.50
2019-04-16T15:59:49.671Z,23.50
2019-04-16T16:02:39.855Z,23.50
2019-04-16T16:05:17.583Z,23.50
2019-04-16T16:07:56.017Z,23.50
2019-04-16T16:10:29.048Z,23.50
2019-04-16T16:13:01.514Z,23.50
2019-04-16T16:15:34.183Z,23.50
2019-04-16T16:18:06.678Z,23.50
2019-04-16T16:20:38.978Z,23.50
2019-04-16T16:23:19.274Z,23.50
2019-04-16T16:26:03.952Z,23.50
2019-04-16T16:28:32.006Z,23.50
2019-04-16T16:31:04.595Z,23.50
2019-04-16T16:33:36.928Z,23.50
2019-04-16T16:36:09.318Z,23.50
2019-04-16T16:38:56.520Z,23.50
2019-04-16T16:41:37.456Z,23.50
2019-04-16T16:45:25.862Z,23.50
2019-04-16T16:47:17.979Z,23.50
2019-04-16T16:50:07.526Z,23.50
2019-04-16T16:52:43.496Z,23.50
2019-04-16T16:55:17.622Z,23.50
2019-04-16T16:57:52.341Z,23.50
2019-04-16T17:00:47.370Z,23.50
2019-04-16T17:03:36.463Z,23.50
2019-04-16T17:06:05.208Z,23.50
2019-04-16T17:08:40.884Z,23.50
2019-04-16T17:11:16.749Z,23.40
2019-04-16T17:13:47.152Z,23.50
2019-04-16T17:16:19.523Z,23.40
2019-04-16T17:18:52.178Z,23.40
2019-04-16T17:21:24.504Z,23.50
2019-04-16T17:23:57.177Z,23.40
2019-04-16T17:26:29.119Z,23.40
2019-04-16T17:29:01.432Z,23.40
2019-04-16T17:31:36.039Z,23.40
2019-04-16T17:34:08.768Z,23.40
2019-04-16T17:36:40.544Z,23.40
2019-04-16T17:39:14.374Z,23.40
2019-04-16T17:41:57.806Z,23.40
2019-04-16T17:44:35.861Z,23.40
2019-04-16T17:47:10.181Z,23.40
2019-04-16T17:49:44.005Z,23.40
2019-04-16T17:52:20.369Z,23.40
2019-04-16T17:54:57.452Z,23.40
2019-04-16T17:57:31.489Z,23.40
2019-04-16T18:00:21.399Z,23.30
2019-04-16T18:03:04.681Z,23.30
2019-04-16T18:05:41.897Z,23.20
2019-04-16T18:08:31.941Z,23.10
2019-04-16T18:11:12.416Z,23.10
2019-04-16T18:13:46.004Z,23.10
2019-04-16T18:16:20.549Z,23.10
2019-04-16T18:19:00.468Z,23.10
2019-04-16T18:21:34.147Z,23.10
2019-04-16T18:24:17.087Z,23.10
2019-04-16T18:26:50.816Z,23.00
2019-04-16T18:29:33.727Z,23.00
2019-04-16T18:32:16.909Z,23.00
2019-04-16T18:34:50.493Z,23.00
2019-04-16T18:37:39.748Z,23.00
2019-04-16T18:40:29.487Z,23.00
2019-04-16T18:43:06.958Z,23.00
2019-04-16T18:45:40.573Z,23.00
2019-04-16T18:48:14.522Z,23.00
2019-04-16T18:50:46.637Z,22.90
2019-04-16T18:53:19.284Z,22.90
2019-04-16T18:55:51.494Z,23.00
2019-04-16T18:58:25.232Z,23.00
2019-04-16T19:00:58.844Z,23.00
2019-04-16T19:03:31.463Z,23.00
2019-04-16T19:06:04.208Z,23.00
2019-04-16T19:08:42.132Z,23.00
2019-04-16T19:11:10.684Z,23.00
2019-04-16T19:13:43.349Z,23.00
2019-04-16T19:16:15.674Z,23.00
2019-04-16T19:18:48.004Z,23.00
2019-04-16T19:21:20.715Z,23.00
2019-04-16T19:23:53.789Z,23.00
2019-04-16T19:26:25.923Z,23.00
2019-04-16T19:28:58.204Z,23.00
2019-04-16T19:31:31.005Z,23.00
2019-04-16T19:34:08.369Z,23.00
2019-04-16T19:36:37.285Z,23.00
2019-04-16T19:39:13.790Z,23.00
2019-04-16T19:41:43.607Z,23.00
2019-04-16T19:44:16.375Z,23.00
2019-04-16T19:46:52.638Z,23.00
2019-04-16T19:49:23.409Z,23.00
2019-04-16T19:51:55.741Z,23.00
2019-04-16T19:54:31.491Z,23.00
2019-04-16T19:57:02.115Z,23.00
2019-04-16T19:59:34.452Z,23.00
2019-04-16T20:02:08.437Z,23.00
2019-04-16T20:04:41.365Z,23.00
2019-04-16T20:07:14.584Z,23.00
2019-04-16T20:09:47.239Z,23.00
2019-04-16T20:12:19.436Z,23.00
2019-04-16T20:14:52.156Z,23.00
2019-04-16T20:17:24.283Z,23.00
2019-04-16T20:20:01.042Z,23.00
2019-04-16T20:22:36.577Z,23.00
2019-04-16T20:25:09.764Z,23.00
2019-04-16T20:27:42.342Z,23.00
2019-04-16T20:30:15.966Z,23.00
2019-04-16T20:32:48.628Z,23.10
2019-04-16T20:35:21.838Z,23.10
2019-04-16T20:37:54.179Z,23.10
2019-04-16T20:40:27.295Z,23.10
2019-04-16T20:42:59.683Z,23.10
2019-04-16T20:45:32.533Z,23.10
2019-04-16T20:48:04.904Z,23.10
2019-04-16T20:50:37.592Z,23.10
2019-04-16T20:53:09.859Z,23.10
2019-04-16T20:55:47.076Z,23.10
2019-04-16T20:58:18.858Z,23.10
2019-04-16T21:00:52.604Z,23.10
2019-04-16T21:03:24.823Z,23.10
2019-04-16T21:05:59.678Z,23.10
2019-04-16T21:08:31.403Z,23.10
2019-04-16T21:11:07.361Z,23.10
2019-04-16T21:13:37.188Z,23.10
2019-04-16T21:16:10.015Z,23.10
2019-04-16T21:18:42.232Z,23.10
2019-04-16T21:21:15.293Z,23.10
2019-04-16T21:23:47.392Z,23.10
2019-04-16T21:26:20.275Z,23.10
2019-04-16T21:29:02.110Z,23.10
2019-04-16T21:31:43.921Z,23.10
2019-04-16T21:34:24.262Z,23.10
2019-04-16T21:37:09.293Z,23.10
2019-04-16T21:39:42.843Z,23.10
2019-04-16T21:42:15.706Z,23.10
2019-04-16T21:44:47.977Z,23.10
2019-04-16T21:47:23.626Z,23.10
2019-04-16T21:49:54.749Z,23.10
2019-04-16T21:52:27.234Z,23.10
2019-04-16T21:55:03.014Z,23.10
2019-04-16T21:57:34.179Z,23.10
2019-04-16T22:00:12.031Z,23.10
2019-04-16T22:02:47.223Z,23.10
2019-04-16T22:05:19.924Z,23.10
2019-04-16T22:07:53.640Z,23.10
2019-04-16T22:10:25.790Z,23.10
2019-04-16T22:12:58.184Z,23.10
2019-04-16T22:15:30.729Z,23.10
2019-04-16T22:18:07.582Z,23.10
2019-04-16T22:20:36.874Z,23.10
2019-04-16T22:23:09.489Z,23.10
2019-04-16T22:25:42.255Z,23.10
2019-04-16T22:28:15.374Z,23.10
2019-04-16T22:30:51.202Z,23.10
2019-04-16T22:33:22.653Z,23.10
2019-04-16T22:35:55.081Z,23.00
2019-04-16T22:38:29.314Z,23.00
2019-04-16T22:41:03.343Z,23.00
2019-04-16T22:43:53.533Z,23.00
2019-04-16T22:46:30.288Z,23.10
2019-04-16T22:49:03.148Z,23.10
2019-04-16T22:51:35.513Z,23.10
2019-04-16T22:54:07.895Z,23.10
2019-04-16T22:57:01.982Z,23.10
2019-04-16T22:59:31.756Z,23.10
2019-04-16T23:02:05.418Z,23.10
2019-04-16T23:04:38.017Z,23.10
2019-04-16T23:07:11.992Z,23.10
2019-04-16T23:09:45.728Z,23.10
2019-04-16T23:12:20.874Z,23.10
2019-04-16T23:14:53.439Z,23.10
2019-04-16T23:17:27.080Z,23.10
2019-04-16T23:19:59.618Z,23.10
2019-04-16T23:22:33.316Z,23.10
2019-04-16T23:25:04.766Z,23.10
2019-04-16T23:27:37.582Z,23.20
2019-04-16T23:30:10.862Z,23.20
2019-04-16T23:32:43.579Z,23.20
2019-04-16T23:35:16.901Z,23.30
2019-04-16T23:37:48.196Z,23.20
2019-04-16T23:40:20.719Z,23.30
2019-04-16T23:42:55.901Z,23.20
2019-04-16T23:45:38.902Z,23.20
2019-04-16T23:48:29.116Z,23.20
2019-04-16T23:51:04.408Z,23.20
2019-04-16T23:53:39.052Z,23.30
2019-04-16T23:56:23.457Z,23.30
2019-04-16T23:59:06.565Z,23.30
